Home > Products > Valid Products > TAF

000
FTUS43 KTOP 050500
TAFTOP
TAF
KTOP 050523Z 0506/0606 01006KT P6SM SCT200
     FM052000 17006KT P6SM SCT200=



000
FTUS43 KTOP 050500
TAFTOP
TAF
KTOP 050523Z 0506/0606 01006KT P6SM SCT200
     FM052000 17006KT P6SM SCT200=



000
FTUS43 KTOP 042300
TAFTOP
TAF
KTOP 042320Z 0500/0524 01006KT P6SM BKN200
     FM052000 16006KT P6SM SCT200=



000
FTUS43 KTOP 042300
TAFTOP
TAF
KTOP 042320Z 0500/0524 01006KT P6SM BKN200
     FM052000 16006KT P6SM SCT200=



000
FTUS43 KTOP 041700
TAFTOP
TAF
KTOP 041720Z 0418/0518 01013KT P6SM SCT110
     FM050000 02005KT P6SM SCT200=



000
FTUS43 KTOP 041700
TAFTOP
TAF
KTOP 041720Z 0418/0518 01013KT P6SM SCT110
     FM050000 02005KT P6SM SCT200=



000
FTUS43 KTOP 041300 AAA
TAFTOP
TAF AMD
KTOP 041336Z 0414/0512 01014G22KT P6SM SCT035 OVC060
      TEMPO 0414/0415 5SM -SN OVC035
     FM041500 01013KT P6SM SCT040 BKN090
     FM050000 01005KT P6SM BKN200=



000
FTUS43 KTOP 041300 AAA
TAFTOP
TAF AMD
KTOP 041336Z 0414/0512 01014G22KT P6SM SCT035 OVC060
      TEMPO 0414/0415 5SM -SN OVC035
     FM041500 01013KT P6SM SCT040 BKN090
     FM050000 01005KT P6SM BKN200=



000
FTUS43 KTOP 041100
TAFTOP
TAF
KTOP 041122Z 0412/0512 01014G22KT P6SM SCT025 OVC060
     FM041500 01013KT P6SM SCT040 BKN090
     FM050000 01005KT P6SM BKN200=



000
FTUS43 KTOP 041100
TAFTOP
TAF
KTOP 041122Z 0412/0512 01014G22KT P6SM SCT025 OVC060
     FM041500 01013KT P6SM SCT040 BKN090
     FM050000 01005KT P6SM BKN200=



000
FTUS43 KTOP 040500
TAFTOP
TAF
KTOP 040529Z 0406/0506 36012G18KT P6SM BKN040
     FM041100 01010KT 5SM -SN BR BKN025 OVC040
     FM041500 01010KT P6SM SCT040 BKN090
     FM050200 01005KT P6SM BKN200=



000
FTUS43 KTOP 040500
TAFTOP
TAF
KTOP 040529Z 0406/0506 36012G18KT P6SM BKN040
     FM041100 01010KT 5SM -SN BR BKN025 OVC040
     FM041500 01010KT P6SM SCT040 BKN090
     FM050200 01005KT P6SM BKN200=



000
FTUS43 KTOP 032300
TAFTOP
TAF
KTOP 032327Z 0400/0424 36012G17KT P6SM SCT025 BKN040
     FM041200 01010KT 5SM -SN BR SCT025 BKN035
     FM041500 01010KT P6SM SCT040 BKN090=



000
FTUS43 KTOP 032000 AAA
TAFTOP
TAF AMD
KTOP 032030Z 0321/0418 34014G20KT P6SM SCT025 BKN035 OVC150
     FM041300 01012KT 5SM -SN BR SCT025 BKN040
     FM041600 01011KT P6SM BKN090=



000
FTUS43 KTOP 031700
TAFTOP
TAF
KTOP 031736Z 0318/0418 29012G21KT P6SM OVC025
     FM032100 35014G19KT P6SM SCT025 OVC150
     FM041300 01012KT 5SM -SN BR SCT025 BKN040
     FM041600 01011KT P6SM BKN090=



000
FTUS43 KTOP 031700
TAFTOP
TAF
KTOP 031736Z 0318/0418 29012G21KT P6SM OVC025
     FM032100 35014G19KT P6SM SCT025 OVC150
     FM041300 01012KT 5SM -SN BR SCT025 BKN040
     FM041600 01011KT P6SM BKN090=



000
FTUS43 KTOP 031600 AAC
TAFTOP
TAF AMD
KTOP 031657Z 0317/0412 28012G20KT P6SM OVC025
     FM032100 33015G22KT P6SM BKN030
     FM040200 36013KT P6SM BKN040=



000
FTUS43 KTOP 031600 AAC
TAFTOP
TAF AMD
KTOP 031657Z 0317/0412 28012G20KT P6SM OVC025
     FM032100 33015G22KT P6SM BKN030
     FM040200 36013KT P6SM BKN040=



000
FTUS43 KTOP 031300 AAA
TAFTOP
TAF AMD
KTOP 031310Z 0313/0412 21012G22KT P6SM OVC008
     FM031500 23014G22KT P6SM BKN013
     FM031700 25015G22KT P6SM SCT025
     FM032100 33015G22KT P6SM BKN030
     FM040200 36013KT P6SM BKN040=



000
FTUS43 KTOP 031100
TAFTOP
TAF
KTOP 031121Z 0312/0412 20015G25KT P6SM OVC007
     FM031300 22014G22KT P6SM OVC013
     FM031500 25015G22KT P6SM SCT025
     FM032100 33015G22KT P6SM BKN030
     FM040200 36013KT P6SM BKN040=



000
FTUS43 KTOP 030700 AAA
TAFTOP
TAF AMD
KTOP 030749Z 0308/0406 18012G22KT 4SM BR OVC009
      TEMPO 0308/0312 2SM -DZ BR OVC005
     FM031200 22014G23KT 6SM -DZ BR BKN030 OVC120
     FM031500 25015KT P6SM SCT030
     FM032100 33017G25KT P6SM BKN030=



000
FTUS43 KTOP 030700 AAA
TAFTOP
TAF AMD
KTOP 030749Z 0308/0406 18012G22KT 4SM BR OVC009
      TEMPO 0308/0312 2SM -DZ BR OVC005
     FM031200 22014G23KT 6SM -DZ BR BKN030 OVC120
     FM031500 25015KT P6SM SCT030
     FM032100 33017G25KT P6SM BKN030=



000
FTUS43 KTOP 030500
TAFTOP
TAF
KTOP 030520Z 0306/0406 18015G24KT 4SM -DZ BR OVC009
     FM031300 22014G23KT 6SM -DZ BR BKN030 OVC120
     FM031500 25015KT P6SM SCT030
     FM032100 33017G25KT P6SM BKN030=



000
FTUS43 KTOP 022300
TAFTOP
TAF
KTOP 022326Z 0300/0324 14014KT P6SM SCT040
     FM030100 15012KT 6SM -DZ BR BKN020 OVC090
     FM030700 18015G24KT 4SM -DZ BR OVC009
     FM031300 22014G23KT 6SM -DZ BR BKN030 OVC120
     FM031500 25015KT P6SM SCT030
     FM032100 33017G25KT P6SM BKN030=



000
FTUS43 KTOP 021700 RRA
TAFTOP
TAF
KTOP 021743Z 0218/0318 13012KT P6SM SCT060 BKN120
     FM030100 15012KT 6SM -DZ BR BKN020 OVC090
     FM030700 18015G24KT 4SM -DZRA BR OVC009
     FM031300 22014G23KT 6SM -DZ BR BKN020 OVC120=



000
FTUS43 KTOP 021700 RRA
TAFTOP
TAF
KTOP 021743Z 0218/0318 13012KT P6SM SCT060 BKN120
     FM030100 15012KT 6SM -DZ BR BKN020 OVC090
     FM030700 18015G24KT 4SM -DZRA BR OVC009
     FM031300 22014G23KT 6SM -DZ BR BKN020 OVC120=



000
FTUS43 KTOP 021100
TAFTOP
TAF
KTOP 021120Z 0212/0312 12005KT P6SM SCT090
      TEMPO 0212/0214 5SM BR
     FM021800 12011KT P6SM BKN200
     FM030000 13013KT 6SM -DZ BR OVC020
     FM030300 16014G24KT 4SM -RA BR OVC009=



000
FTUS43 KTOP 021100
TAFTOP
TAF
KTOP 021120Z 0212/0312 12005KT P6SM SCT090
      TEMPO 0212/0214 5SM BR
     FM021800 12011KT P6SM BKN200
     FM030000 13013KT 6SM -DZ BR OVC020
     FM030300 16014G24KT 4SM -RA BR OVC009=



    US Dept of Commerce
    National Oceanic and Atmospheric Administration
    National Weather Service
    1325 East West Highway
    Silver Spring, MD 20910
    Page Author: NWS Internet Services Team
Disclaimer
Information Quality
Credits
Glossary
Privacy Policy
Freedom of Information Act (FOIA)
About Us
Career Opportunities